Wetterstation Vordersexau
Wetterdaten: Woche 26.01.15 - 01.02.15 (KW5)
Datum Zeit Temp. A. Feuchte A. Luftdruck Regen Wind Richtung Taupunkt Windchill Windben
26.01.2015 00:00 -0,2 C 88 % 1026,6 hPa 0,0 l/m 0,0 km/h W-NW -1,9 C -0,2 C 0,0 km/h
26.01.2015 01:00 -0,1 C 87 % 1026,4 hPa 0,0 l/m 0,0 km/h W-NW -2,0 C -0,1 C 0,0 km/h
26.01.2015 02:00 0,1 C 87 % 1026,3 hPa 0,0 l/m 0,0 km/h W-NW -1,8 C 0,1 C 0,0 km/h
26.01.2015 03:00 0,3 C 87 % 1025,9 hPa 0,0 l/m 0,0 km/h W-NW -1,6 C 0,3 C 0,0 km/h
26.01.2015 04:00 0,2 C 87 % 1025,7 hPa 0,0 l/m 0,0 km/h W-NW -1,7 C 0,2 C 0,0 km/h
26.01.2015 05:00 0,3 C 87 % 1025,9 hPa 0,0 l/m 0,0 km/h W-NW -1,6 C 0,3 C 0,0 km/h
26.01.2015 06:00 0,1 C 87 % 1025,7 hPa 0,0 l/m 0,0 km/h W-NW -1,8 C 0,1 C 0,0 km/h
26.01.2015 07:00 0,1 C 87 % 1025,4 hPa 0,0 l/m 0,0 km/h W-NW -1,8 C 0,1 C 0,0 km/h
26.01.2015 08:00 0,2 C 87 % 1025,3 hPa 0,0 l/m 0,0 km/h W-NW -1,7 C 0,2 C 0,0 km/h
26.01.2015 09:00 0,6 C 87 % 1024,6 hPa 0,0 l/m 0,0 km/h NW -1,3 C 0,6 C 0,0 km/h
26.01.2015 10:00 1,0 C 86 % 1024,5 hPa 0,0 l/m 0,0 km/h NW -1,1 C 1,0 C 0,0 km/h
26.01.2015 11:00 1,4 C 87 % 1023,8 hPa 0,0 l/m 0,0 km/h NW -0,5 C 1,4 C 0,0 km/h
26.01.2015 12:00 2,1 C 87 % 1022,8 hPa 0,8 l/m 0,0 km/h W-NW 0,2 C 2,1 C 0,0 km/h
26.01.2015 13:00 2,2 C 87 % 1021,9 hPa 0,8 l/m 0,0 km/h S-SO 0,3 C 2,2 C 0,0 km/h
26.01.2015 14:00 1,8 C 88 % 1021,5 hPa 1,6 l/m 0,0 km/h S 0,0 C 1,8 C 0,0 km/h
26.01.2015 15:00 1,2 C 87 % 1020,9 hPa 0,0 l/m 0,0 km/h S-SO -0,7 C 1,2 C 0,0 km/h
26.01.2015 16:00 0,8 C 87 % 1020,2 hPa 1,6 l/m 0,0 km/h SW -1,1 C 0,8 C 0,0 km/h
26.01.2015 17:00 1,1 C 87 % 1020,1 hPa 1,6 l/m 0,0 km/h S -0,8 C 1,1 C 0,0 km/h
26.01.2015 18:00 1,2 C 86 % 1019,7 hPa 1,6 l/m 3,2 km/h W-SW -0,9 C 1,2 C 1,8 km/h
26.01.2015 19:00 1,6 C 86 % 1019,4 hPa 1,6 l/m 19,4 km/h SW -0,5 C -7,3 C 10,8 km/h
26.01.2015 20:00 1,8 C 86 % 1018,8 hPa 0,8 l/m 16,8 km/h S-SW -0,3 C -5,8 C 9,4 km/h
26.01.2015 21:00 1,8 C 86 % 1018,8 hPa 0,8 l/m 10,4 km/h W-SW -0,3 C -1,8 C 5,8 km/h
26.01.2015 22:00 1,9 C 85 % 1018,9 hPa 1,6 l/m 0,0 km/h W-SW -0,3 C 1,9 C 0,0 km/h
26.01.2015 23:00 1,9 C 84 % 1019,1 hPa 0,8 l/m 1,3 km/h W -0,5 C 1,9 C 0,7 km/h
27.01.2015 00:00 2,0 C 84 % 1019,4 hPa 0,8 l/m 0,0 km/h W -0,4 C 2,0 C 0,0 km/h
27.01.2015 01:00 1,8 C 84 % 1019,6 hPa 0,0 l/m 0,0 km/h W -0,6 C 1,8 C 0,0 km/h
27.01.2015 02:00 1,6 C 84 % 1019,8 hPa 0,0 l/m 0,0 km/h W -0,8 C 1,6 C 0,0 km/h
27.01.2015 03:00 1,5 C 84 % 1020,0 hPa 0,0 l/m 0,0 km/h W -0,9 C 1,5 C 0,0 km/h
27.01.2015 04:00 1,2 C 84 % 1020,5 hPa 0,0 l/m 0,0 km/h NW -1,2 C 1,2 C 0,0 km/h
27.01.2015 05:00 0,9 C 84 % 1020,6 hPa 0,0 l/m 0,0 km/h NW -1,5 C 0,9 C 0,0 km/h
27.01.2015 06:00 1,1 C 84 % 1021,0 hPa 0,8 l/m 0,0 km/h NW -1,3 C 1,1 C 0,0 km/h
27.01.2015 07:00 1,0 C 84 % 1021,4 hPa 0,0 l/m 0,0 km/h NW -1,4 C 1,0 C 0,0 km/h
27.01.2015 08:00 1,1 C 83 % 1021,8 hPa 0,0 l/m 0,0 km/h NW -1,5 C 1,1 C 0,0 km/h
27.01.2015 09:00 1,8 C 83 % 1022,1 hPa 0,0 l/m 0,0 km/h NW -0,8 C 1,8 C 0,0 km/h
27.01.2015 10:00 2,9 C 82 % 1022,5 hPa 0,0 l/m 0,0 km/h W 0,1 C 2,9 C 0,0 km/h
27.01.2015 11:00 4,4 C 85 % 1022,5 hPa 0,0 l/m 0,0 km/h W 2,1 C 4,4 C 0,0 km/h
27.01.2015 12:00 5,2 C 87 % 1022,4 hPa 0,0 l/m 1,3 km/h W 3,2 C 5,2 C 0,7 km/h
27.01.2015 13:00 5,0 C 85 % 1021,5 hPa 0,0 l/m 0,0 km/h W 2,7 C 5,0 C 0,0 km/h
27.01.2015 14:00 5,2 C 83 % 1021,4 hPa 0,0 l/m 0,0 km/h W 2,6 C 5,2 C 0,0 km/h
27.01.2015 15:00 4,2 C 85 % 1020,9 hPa 0,0 l/m 0,0 km/h W 1,9 C 4,2 C 0,0 km/h
27.01.2015 16:00 3,4 C 86 % 1021,5 hPa 0,0 l/m 0,0 km/h W 1,3 C 3,4 C 0,0 km/h
27.01.2015 17:00 2,4 C 87 % 1021,6 hPa 0,0 l/m 0,0 km/h W 0,5 C 2,4 C 0,0 km/h
27.01.2015 18:00 2,1 C 87 % 1021,8 hPa 0,0 l/m 0,0 km/h W 0,2 C 2,1 C 0,0 km/h
27.01.2015 19:00 1,9 C 88 % 1021,9 hPa 0,0 l/m 0,0 km/h W 0,1 C 1,9 C 0,0 km/h
27.01.2015 20:00 1,8 C 88 % 1022,2 hPa 0,0 l/m 0,0 km/h W 0,0 C 1,8 C 0,0 km/h
27.01.2015 21:00 1,6 C 88 % 1022,4 hPa 0,0 l/m 0,0 km/h W -0,2 C 1,6 C 0,0 km/h
27.01.2015 22:00 1,4 C 88 % 1022,1 hPa 0,0 l/m 0,0 km/h W -0,4 C 1,4 C 0,0 km/h
27.01.2015 23:00 1,3 C 87 % 1021,9 hPa 0,0 l/m 0,0 km/h W -0,6 C 1,3 C 0,0 km/h
28.01.2015 00:00 1,1 C 87 % 1022,1 hPa 0,0 l/m 0,0 km/h W -0,8 C 1,1 C 0,0 km/h
28.01.2015 01:00 0,9 C 87 % 1021,5 hPa 0,0 l/m 0,0 km/h W -1,0 C 0,9 C 0,0 km/h
28.01.2015 02:00 -0,7 C 87 % 1020,8 hPa 0,0 l/m 0,0 km/h W -2,6 C -0,7 C 0,0 km/h
28.01.2015 03:00 -1,2 C 87 % 1020,1 hPa 0,0 l/m 0,0 km/h W -3,1 C -1,2 C 0,0 km/h
28.01.2015 04:00 -0,9 C 87 % 1019,8 hPa 0,0 l/m 0,0 km/h W -2,8 C -0,9 C 0,0 km/h
28.01.2015 05:00 -0,7 C 87 % 1019,0 hPa 0,0 l/m 0,0 km/h S-SO -2,6 C -0,7 C 0,0 km/h
28.01.2015 06:00 -0,4 C 87 % 1018,7 hPa 0,0 l/m 0,0 km/h SO -2,3 C -0,4 C 0,0 km/h
28.01.2015 07:00 -0,1 C 86 % 1018,6 hPa 0,0 l/m 0,0 km/h SO -2,2 C -0,1 C 0,0 km/h
28.01.2015 08:00 0,4 C 86 % 1018,4 hPa 0,0 l/m 0,0 km/h S -1,7 C 0,4 C 0,0 km/h
28.01.2015 09:00 1,8 C 85 % 1017,8 hPa 0,0 l/m 0,6 km/h S -0,4 C 1,8 C 0,4 km/h
28.01.2015 10:00 4,3 C 87 % 1017,2 hPa 0,0 l/m 22,7 km/h SW 2,3 C -5,1 C 12,6 km/h
28.01.2015 11:00 5,5 C 81 % 1016,0 hPa 0,0 l/m 8,4 km/h SW 2,5 C 3,8 C 4,7 km/h
28.01.2015 12:00 5,9 C 76 % 1014,4 hPa 0,0 l/m 25,9 km/h SW 2,0 C -4,0 C 14,4 km/h
28.01.2015 13:00 4,8 C 78 % 1012,9 hPa 0,0 l/m 16,8 km/h S-SW 1,3 C -2,0 C 9,4 km/h
28.01.2015 14:00 6,4 C 73 % 1011,2 hPa 0,0 l/m 28,5 km/h W-SW 1,9 C -4,0 C 15,8 km/h
28.01.2015 15:00 5,3 C 74 % 1010,5 hPa 0,0 l/m 20,7 km/h SW 1,0 C -3,1 C 11,5 km/h
28.01.2015 16:00 4,9 C 76 % 1009,2 hPa 0,0 l/m 22,7 km/h W 1,0 C -4,3 C 12,6 km/h
28.01.2015 17:00 4,5 C 77 % 1007,4 hPa 0,0 l/m 22,0 km/h S-SW 0,8 C -4,6 C 12,2 km/h
28.01.2015 18:00 5,5 C 71 % 1005,8 hPa 0,0 l/m 48,6 km/h W-SW 0,7 C -9,1 C 27,0 km/h
28.01.2015 19:00 5,4 C 73 % 1004,7 hPa 0,0 l/m 20,1 km/h W 1,0 C -2,7 C 11,2 km/h
28.01.2015 20:00 5,6 C 75 % 1003,1 hPa 0,0 l/m 18,8 km/h W-SW 1,5 C -1,9 C 10,4 km/h
28.01.2015 21:00 6,1 C 77 % 1002,4 hPa 0,0 l/m 24,0 km/h SW 2,4 C -3,1 C 13,3 km/h
28.01.2015 22:00 6,1 C 80 % 1001,3 hPa 0,0 l/m 14,3 km/h W 2,9 C 0,8 C 7,9 km/h
28.01.2015 23:00 6,0 C 83 % 1001,0 hPa 0,0 l/m 38,2 km/h NW 3,3 C -6,7 C 21,2 km/h
29.01.2015 00:00 5,0 C 86 % 1001,4 hPa 0,0 l/m 3,9 km/h W-SW 2,9 C 5,0 C 2,2 km/h
29.01.2015 01:00 3,3 C 82 % 1001,9 hPa 0,8 l/m 0,0 km/h S-SO 0,5 C 3,3 C 0,0 km/h
29.01.2015 02:00 2,5 C 84 % 1001,9 hPa 0,0 l/m 0,0 km/h S-SW 0,1 C 2,5 C 0,0 km/h
29.01.2015 03:00 2,4 C 83 % 1001,1 hPa 0,0 l/m 0,0 km/h W -0,2 C 2,4 C 0,0 km/h
29.01.2015 04:00 2,1 C 85 % 1001,2 hPa 0,0 l/m 8,4 km/h W-SW -0,2 C 0,2 C 4,7 km/h
29.01.2015 05:00 1,8 C 87 % 1000,7 hPa 0,0 l/m 24,0 km/h S -0,1 C -8,9 C 13,3 km/h
29.01.2015 06:00 1,0 C 87 % 999,8 hPa 0,0 l/m 3,2 km/h S-SW -0,9 C 1,0 C 1,8 km/h
29.01.2015 07:00 1,3 C 87 % 999,5 hPa 0,0 l/m 20,7 km/h W -0,6 C -8,3 C 11,5 km/h
29.01.2015 08:00 2,4 C 85 % 998,8 hPa 0,0 l/m 6,5 km/h S-SW 0,1 C 2,3 C 3,6 km/h
29.01.2015 09:00 3,6 C 82 % 997,6 hPa 0,0 l/m 22,0 km/h W-SW 0,8 C -5,8 C 12,2 km/h
29.01.2015 10:00 4,3 C 81 % 996,4 hPa 0,0 l/m 22,7 km/h W 1,3 C -5,1 C 12,6 km/h
29.01.2015 11:00 4,9 C 80 % 994,9 hPa 0,0 l/m 22,7 km/h W-SW 1,7 C -4,3 C 12,6 km/h
29.01.2015 12:00 5,2 C 80 % 992,9 hPa 0,0 l/m 16,2 km/h W 2,0 C -1,3 C 9,0 km/h
29.01.2015 13:00 5,3 C 79 % 990,8 hPa 0,0 l/m 23,3 km/h SW 2,0 C -4,0 C 13,0 km/h
29.01.2015 14:00 5,0 C 80 % 989,0 hPa 0,0 l/m 18,1 km/h W-SW 1,8 C -2,4 C 10,1 km/h
29.01.2015 15:00 5,1 C 81 % 987,2 hPa 0,0 l/m 20,7 km/h S-SW 2,1 C -3,3 C 11,5 km/h
29.01.2015 16:00 5,1 C 82 % 985,4 hPa 0,0 l/m 22,0 km/h W-SW 2,3 C -3,8 C 12,2 km/h
29.01.2015 17:00 4,8 C 82 % 983,6 hPa 0,0 l/m 16,2 km/h W-SW 2,0 C -1,8 C 9,0 km/h
29.01.2015 18:00 5,0 C 83 % 981,9 hPa 0,0 l/m 2,6 km/h SW 2,4 C 5,0 C 1,4 km/h
29.01.2015 19:00 5,5 C 82 % 980,1 hPa 0,0 l/m 23,3 km/h SW 2,7 C -3,7 C 13,0 km/h
29.01.2015 20:00 5,6 C 81 % 978,5 hPa 0,0 l/m 20,1 km/h SW 2,6 C -2,4 C 11,2 km/h
29.01.2015 21:00 5,5 C 82 % 976,8 hPa 0,0 l/m 23,3 km/h W-SW 2,7 C -3,7 C 13,0 km/h
29.01.2015 22:00 5,5 C 82 % 975,3 hPa 0,0 l/m 24,6 km/h SW 2,7 C -4,1 C 13,7 km/h
29.01.2015 23:00 5,4 C 83 % 974,5 hPa 0,0 l/m 11,0 km/h W-SW 2,7 C 1,8 C 6,1 km/h
30.01.2015 00:00 4,3 C 86 % 973,9 hPa 0,0 l/m 26,6 km/h W-SW 2,2 C -6,4 C 14,8 km/h
30.01.2015 01:00 3,6 C 87 % 974,8 hPa 0,0 l/m 31,8 km/h S-SW 1,6 C -8,8 C 17,6 km/h
30.01.2015 02:00 3,4 C 86 % 975,1 hPa 0,0 l/m 28,5 km/h SW 1,3 C -8,2 C 15,8 km/h
30.01.2015 03:00 2,3 C 86 % 976,1 hPa 0,0 l/m 3,2 km/h W-SW 0,2 C 2,3 C 1,8 km/h
30.01.2015 04:00 1,6 C 87 % 978,2 hPa 0,0 l/m 14,9 km/h W-SW -0,3 C -5,0 C 8,3 km/h
30.01.2015 05:00 0,5 C 87 % 979,7 hPa 0,0 l/m 14,3 km/h W -1,4 C -6,0 C 7,9 km/h
30.01.2015 06:00 0,1 C 87 % 981,4 hPa 0,0 l/m 0,0 km/h SW -1,8 C 0,1 C 0,0 km/h
30.01.2015 07:00 0,2 C 87 % 981,9 hPa 0,0 l/m 0,0 km/h S-SW -1,7 C 0,2 C 0,0 km/h
30.01.2015 08:00 0,3 C 87 % 982,2 hPa 0,0 l/m 0,0 km/h S-SW -1,6 C 0,3 C 0,0 km/h
30.01.2015 09:00 0,9 C 87 % 981,9 hPa 0,0 l/m 0,0 km/h SW -1,0 C 0,9 C 0,0 km/h
30.01.2015 10:00 1,2 C 85 % 981,5 hPa 0,8 l/m 23,3 km/h SW -1,0 C -9,5 C 13,0 km/h
30.01.2015 11:00 3,5 C 81 % 980,6 hPa 0,8 l/m 23,3 km/h S-SW 0,6 C -6,4 C 13,0 km/h
30.01.2015 12:00 2,6 C 80 % 979,5 hPa 0,8 l/m 25,3 km/h S-SW -0,5 C -8,3 C 14,0 km/h
30.01.2015 13:00 3,8 C 80 % 978,7 hPa 0,0 l/m 29,8 km/h SW 0,7 C -8,0 C 16,6 km/h
30.01.2015 14:00 3,6 C 79 % 978,1 hPa 0,0 l/m 16,8 km/h W 0,3 C -3,5 C 9,4 km/h
30.01.2015 15:00 3,4 C 77 % 977,5 hPa 0,0 l/m 7,1 km/h S-SW -0,2 C 2,7 C 4,0 km/h
30.01.2015 16:00 3,3 C 76 % 977,1 hPa 0,0 l/m 16,2 km/h W-SW -0,5 C -3,6 C 9,0 km/h
30.01.2015 17:00 2,9 C 77 % 977,2 hPa 0,0 l/m 22,7 km/h SW -0,7 C -7,0 C 12,6 km/h
30.01.2015 18:00 2,2 C 81 % 977,4 hPa 0,0 l/m 20,7 km/h SW -0,7 C -7,1 C 11,5 km/h
30.01.2015 19:00 1,9 C 85 % 977,5 hPa 0,0 l/m 20,7 km/h W -0,3 C -7,5 C 11,5 km/h
30.01.2015 20:00 2,1 C 85 % 978,1 hPa 0,0 l/m 4,5 km/h W-SW -0,2 C 2,1 C 2,5 km/h
30.01.2015 21:00 1,9 C 86 % 978,8 hPa 0,0 l/m 13,6 km/h S-SW -0,2 C -3,9 C 7,6 km/h
30.01.2015 22:00 1,8 C 87 % 979,3 hPa 0,0 l/m 11,0 km/h W-SW -0,1 C -2,2 C 6,1 km/h
30.01.2015 23:00 1,8 C 87 % 980,0 hPa 0,0 l/m 7,1 km/h W-SW -0,1 C 1,1 C 4,0 km/h
31.01.2015 00:00 1,6 C 87 % 980,5 hPa 0,0 l/m 9,1 km/h S-SW -0,3 C -0,9 C 5,0 km/h
31.01.2015 01:00 1,6 C 87 % 980,8 hPa 0,0 l/m 0,0 km/h W-SW -0,3 C 1,6 C 0,0 km/h
31.01.2015 02:00 1,6 C 87 % 981,5 hPa 0,0 l/m 6,5 km/h S-SW -0,3 C 1,5 C 3,6 km/h
31.01.2015 03:00 1,7 C 86 % 981,9 hPa 0,0 l/m 0,0 km/h W-SW -0,4 C 1,7 C 0,0 km/h
31.01.2015 04:00 1,6 C 85 % 982,1 hPa 0,0 l/m 12,3 km/h SW -0,6 C -3,4 C 6,8 km/h
31.01.2015 05:00 1,1 C 86 % 982,2 hPa 0,0 l/m 0,0 km/h SW -1,0 C 1,1 C 0,0 km/h
31.01.2015 06:00 1,4 C 85 % 982,2 hPa 0,0 l/m 0,0 km/h W-SW -0,8 C 1,4 C 0,0 km/h
31.01.2015 07:00 1,4 C 80 % 982,4 hPa 0,0 l/m 16,8 km/h S -1,7 C -6,3 C 9,4 km/h
31.01.2015 08:00 1,4 C 83 % 982,5 hPa 0,0 l/m 0,0 km/h S-SW -1,2 C 1,4 C 0,0 km/h
31.01.2015 09:00 4,1 C 76 % 982,4 hPa 0,0 l/m 2,6 km/h W-SW 0,3 C 4,1 C 1,4 km/h
31.01.2015 10:00 5,5 C 72 % 982,8 hPa 0,0 l/m 5,8 km/h S-SW 0,9 C 5,5 C 3,2 km/h
31.01.2015 11:00 8,1 C 64 % 982,8 hPa 0,0 l/m 9,7 km/h W 1,7 C 5,7 C 5,4 km/h
31.01.2015 12:00 7,2 C 63 % 982,6 hPa 0,0 l/m 0,6 km/h W 0,6 C 7,2 C 0,4 km/h
31.01.2015 13:00 5,4 C 67 % 982,5 hPa 0,0 l/m 19,4 km/h S-SW -0,2 C -2,4 C 10,8 km/h
31.01.2015 14:00 2,8 C 81 % 983,0 hPa 0,0 l/m 9,7 km/h W -0,1 C -0,1 C 5,4 km/h
31.01.2015 15:00 2,4 C 85 % 983,4 hPa 0,8 l/m 10,4 km/h W-SW 0,1 C -1,1 C 5,8 km/h
31.01.2015 16:00 2,6 C 84 % 984,1 hPa 0,0 l/m 23,3 km/h W-SW 0,2 C -7,6 C 13,0 km/h
31.01.2015 17:00 2,4 C 85 % 984,7 hPa 0,0 l/m 5,8 km/h W-SW 0,1 C 2,4 C 3,2 km/h
31.01.2015 18:00 2,5 C 85 % 985,1 hPa 0,0 l/m 3,9 km/h W-SW 0,2 C 2,5 C 2,2 km/h
31.01.2015 19:00 2,2 C 85 % 985,9 hPa 0,0 l/m 15,6 km/h W-SW -0,1 C -4,6 C 8,6 km/h
31.01.2015 20:00 1,5 C 85 % 986,5 hPa 0,0 l/m 0,0 km/h SW -0,7 C 1,5 C 0,0 km/h
31.01.2015 21:00 1,9 C 85 % 986,7 hPa 0,0 l/m 6,5 km/h S-SW -0,3 C 1,8 C 3,6 km/h
31.01.2015 22:00 1,5 C 83 % 986,3 hPa 0,0 l/m 1,9 km/h S-SW -1,1 C 1,5 C 1,1 km/h
31.01.2015 23:00 2,1 C 82 % 986,5 hPa 0,0 l/m 2,6 km/h S-SW -0,6 C 2,1 C 1,4 km/h
01.02.2015 00:00 2,4 C 81 % 986,2 hPa 0,0 l/m 18,1 km/h W-SW -0,5 C -5,7 C 10,1 km/h
01.02.2015 01:00 2,5 C 79 % 986,0 hPa 0,0 l/m 10,4 km/h W -0,8 C -1,0 C 5,8 km/h
01.02.2015 02:00 2,9 C 76 % 985,9 hPa 0,0 l/m 19,4 km/h W-SW -0,9 C -5,6 C 10,8 km/h
01.02.2015 03:00 0,8 C 85 % 986,0 hPa 0,0 l/m 21,4 km/h W -1,4 C -9,2 C 11,9 km/h
01.02.2015 04:00 0,5 C 87 % 987,1 hPa 0,0 l/m 7,1 km/h W-SW -1,4 C -0,2 C 4,0 km/h
01.02.2015 05:00 0,5 C 87 % 987,6 hPa 0,0 l/m 0,0 km/h SW -1,4 C 0,5 C 0,0 km/h
01.02.2015 06:00 0,7 C 87 % 988,3 hPa 0,0 l/m 0,0 km/h S-SW -1,2 C 0,7 C 0,0 km/h
01.02.2015 07:00 0,6 C 87 % 989,0 hPa 0,0 l/m 1,9 km/h W-SW -1,3 C 0,6 C 1,1 km/h
01.02.2015 08:00 0,9 C 87 % 989,8 hPa 0,0 l/m 7,8 km/h S-SW -1,0 C -0,5 C 4,3 km/h
01.02.2015 09:00 1,9 C 86 % 990,2 hPa 0,0 l/m 10,4 km/h W -0,2 C -1,7 C 5,8 km/h
01.02.2015 10:00 3,1 C 83 % 990,7 hPa 0,0 l/m 3,9 km/h SW 0,5 C 3,1 C 2,2 km/h
01.02.2015 11:00 1,9 C 83 % 991,4 hPa 0,0 l/m 25,3 km/h W-SW -0,7 C -9,2 C 14,0 km/h
01.02.2015 12:00 1,3 C 87 % 991,7 hPa 0,8 l/m 24,6 km/h W -0,6 C -9,8 C 13,7 km/h
01.02.2015 13:00 1,4 C 87 % 992,2 hPa 0,8 l/m 3,2 km/h W-SW -0,5 C 1,4 C 1,8 km/h
01.02.2015 14:00 1,5 C 87 % 992,7 hPa 0,0 l/m 0,0 km/h W -0,4 C 1,5 C 0,0 km/h
01.02.2015 15:00 2,5 C 87 % 993,6 hPa 0,0 l/m 0,0 km/h W-SW 0,6 C 2,5 C 0,0 km/h
01.02.2015 16:00 1,8 C 87 % 994,2 hPa 0,0 l/m 0,0 km/h S-SW -0,1 C 1,8 C 0,0 km/h
01.02.2015 17:00 1,9 C 87 % 994,6 hPa 0,0 l/m 22,0 km/h W -0,0 C -8,0 C 12,2 km/h
01.02.2015 18:00 1,6 C 87 % 995,0 hPa 0,0 l/m 13,6 km/h W-SW -0,3 C -4,2 C 7,6 km/h
01.02.2015 19:00 1,8 C 86 % 995,3 hPa 0,0 l/m 25,9 km/h W-SW -0,3 C -9,6 C 14,4 km/h
01.02.2015 20:00 1,7 C 86 % 995,3 hPa 0,0 l/m 24,0 km/h W-SW -0,4 C -9,1 C 13,3 km/h
01.02.2015 21:00 1,9 C 85 % 995,2 hPa 0,8 l/m 35,0 km/h W-SW -0,3 C -12,0 C 19,4 km/h
01.02.2015 22:00 1,4 C 86 % 995,2 hPa 0,0 l/m 27,9 km/h SW -0,7 C -10,8 C 15,5 km/h
01.02.2015 23:00 1,8 C 86 % 995,0 hPa 0,0 l/m 31,1 km/h SW -0,3 C -11,2 C 17,3 km/h
Min-Datum _ 28.01.15 31.01.15 30.01.15 - 26.01.15 - 28.01.15 01.02.15 26.01.15
_ Min-Zeit 03:53 12:53 00:53 - 00:53 - 03:53 21:53 00:53
Minimum _ -1,2 C 63 % 973,9 hPa - 0,0 km/h - -3,1 C -12,0 C 0,0 km/h
Max-Datum _ 31.01.15 26.01.15 26.01.15 26.01.15 28.01.15 - 28.01.15 31.01.15 28.01.15
_ Max-Zeit 11:53 00:53 00:53 14:53 18:53 - 23:53 12:53 18:53
Maximum _ 8,1 C 88 % 1026,6 hPa 1,6 l/m 48,6 km/h
W-SW
- 3,3 C 7,2 C 27,0 km/h
W-SW
Durchschnitt _ 2,5 C 84 % 1000,3 hPa #21,0 l/m 9,5 km/h W -0,0 C -1,2 C 5,3 km/h
www.sexauwetter.de